sensor_id;sensor_type;location;lat;lon;timestamp;P1;durP1;ratioP1;P2;durP2;ratioP2
54805;SDS011;62866;55.776;37.496;2023-07-24T00:01:40;3.47;;;1.90;;
54805;SDS011;62866;55.776;37.496;2023-07-24T00:04:06;2.00;;;1.77;;
54805;SDS011;62866;55.776;37.496;2023-07-24T00:06:31;2.50;;;1.65;;
54805;SDS011;62866;55.776;37.496;2023-07-24T00:08:57;3.17;;;1.65;;
54805;SDS011;62866;55.776;37.496;2023-07-24T00:11:22;2.17;;;1.40;;
54805;SDS011;62866;55.776;37.496;2023-07-24T00:13:48;2.22;;;1.55;;
54805;SDS011;62866;55.776;37.496;2023-07-24T00:16:13;2.72;;;1.80;;
54805;SDS011;62866;55.776;37.496;2023-07-24T00:18:39;2.05;;;1.60;;
54805;SDS011;62866;55.776;37.496;2023-07-24T00:21:04;3.25;;;1.75;;
54805;SDS011;62866;55.776;37.496;2023-07-24T00:23:30;2.40;;;1.35;;
54805;SDS011;62866;55.776;37.496;2023-07-24T00:25:55;2.67;;;1.70;;
54805;SDS011;62866;55.776;37.496;2023-07-24T00:28:21;2.55;;;1.80;;
54805;SDS011;62866;55.776;37.496;2023-07-24T00:30:46;3.13;;;2.13;;
54805;SDS011;62866;55.776;37.496;2023-07-24T00:33:12;2.60;;;1.95;;
54805;SDS011;62866;55.776;37.496;2023-07-24T00:35:37;2.80;;;2.00;;
54805;SDS011;62866;55.776;37.496;2023-07-24T00:38:03;3.60;;;1.70;;
54805;SDS011;62866;55.776;37.496;2023-07-24T00:40:28;1.77;;;1.42;;
54805;SDS011;62866;55.776;37.496;2023-07-24T00:42:53;3.30;;;2.05;;
54805;SDS011;62866;55.776;37.496;2023-07-24T00:45:19;2.78;;;1.88;;
54805;SDS011;62866;55.776;37.496;2023-07-24T00:47:46;3.00;;;2.03;;
54805;SDS011;62866;55.776;37.496;2023-07-24T00:50:12;2.80;;;1.63;;
54805;SDS011;62866;55.776;37.496;2023-07-24T00:52:38;4.05;;;1.75;;
54805;SDS011;62866;55.776;37.496;2023-07-24T00:55:04;3.17;;;2.33;;
54805;SDS011;62866;55.776;37.496;2023-07-24T00:57:31;1.98;;;1.60;;
54805;SDS011;62866;55.776;37.496;2023-07-24T00:59:57;3.00;;;2.38;;
54805;SDS011;62866;55.776;37.496;2023-07-24T01:02:22;3.38;;;1.88;;
54805;SDS011;62866;55.776;37.496;2023-07-24T01:04:48;3.05;;;1.77;;
54805;SDS011;62866;55.776;37.496;2023-07-24T01:07:14;3.13;;;1.90;;
54805;SDS011;62866;55.776;37.496;2023-07-24T01:09:41;2.67;;;2.10;;
54805;SDS011;62866;55.776;37.496;2023-07-24T01:12:12;3.17;;;1.98;;
54805;SDS011;62866;55.776;37.496;2023-07-24T01:14:55;2.28;;;1.70;;
54805;SDS011;62866;55.776;37.496;2023-07-24T01:17:27;2.47;;;1.90;;
54805;SDS011;62866;55.776;37.496;2023-07-24T01:19:57;2.95;;;1.92;;
54805;SDS011;62866;55.776;37.496;2023-07-24T01:22:25;6.13;;;2.00;;
54805;SDS011;62866;55.776;37.496;2023-07-24T01:27:50;2.65;;;1.85;;
54805;SDS011;62866;55.776;37.496;2023-07-24T01:30:17;2.83;;;1.70;;
54805;SDS011;62866;55.776;37.496;2023-07-24T01:32:43;2.47;;;1.90;;
54805;SDS011;62866;55.776;37.496;2023-07-24T01:35:09;2.13;;;1.92;;
54805;SDS011;62866;55.776;37.496;2023-07-24T01:37:35;1.75;;;1.52;;
54805;SDS011;62866;55.776;37.496;2023-07-24T01:40:04;4.03;;;1.92;;
54805;SDS011;62866;55.776;37.496;2023-07-24T01:42:34;5.18;;;1.80;;
54805;SDS011;62866;55.776;37.496;2023-07-24T01:45:01;4.05;;;1.63;;
54805;SDS011;62866;55.776;37.496;2023-07-24T01:47:28;2.30;;;1.65;;
54805;SDS011;62866;55.776;37.496;2023-07-24T01:49:55;2.45;;;1.75;;
54805;SDS011;62866;55.776;37.496;2023-07-24T01:52:21;2.33;;;1.73;;
54805;SDS011;62866;55.776;37.496;2023-07-24T01:54:46;2.33;;;1.40;;
54805;SDS011;62866;55.776;37.496;2023-07-24T01:57:11;4.00;;;2.10;;
54805;SDS011;62866;55.776;37.496;2023-07-24T01:59:37;4.10;;;2.28;;
54805;SDS011;62866;55.776;37.496;2023-07-24T02:02:03;4.38;;;2.00;;
54805;SDS011;62866;55.776;37.496;2023-07-24T02:04:28;2.30;;;1.75;;
54805;SDS011;62866;55.776;37.496;2023-07-24T02:06:54;3.00;;;1.80;;
54805;SDS011;62866;55.776;37.496;2023-07-24T02:09:19;3.03;;;1.98;;
54805;SDS011;62866;55.776;37.496;2023-07-24T02:11:45;2.45;;;1.50;;
54805;SDS011;62866;55.776;37.496;2023-07-24T02:14:11;3.05;;;1.73;;
54805;SDS011;62866;55.776;37.496;2023-07-24T02:16:38;2.92;;;1.80;;
54805;SDS011;62866;55.776;37.496;2023-07-24T02:19:04;2.58;;;1.63;;
54805;SDS011;62866;55.776;37.496;2023-07-24T02:21:30;5.47;;;2.00;;
54805;SDS011;62866;55.776;37.496;2023-07-24T02:23:55;1.92;;;1.55;;
54805;SDS011;62866;55.776;37.496;2023-07-24T02:26:21;3.13;;;1.80;;
54805;SDS011;62866;55.776;37.496;2023-07-24T02:28:46;3.40;;;2.03;;
54805;SDS011;62866;55.776;37.496;2023-07-24T02:31:12;4.78;;;1.67;;
54805;SDS011;62866;55.776;37.496;2023-07-24T02:33:37;2.83;;;1.60;;
54805;SDS011;62866;55.776;37.496;2023-07-24T02:36:03;3.60;;;1.58;;
54805;SDS011;62866;55.776;37.496;2023-07-24T02:38:28;2.38;;;1.77;;
54805;SDS011;62866;55.776;37.496;2023-07-24T02:40:54;3.35;;;1.50;;
54805;SDS011;62866;55.776;37.496;2023-07-24T02:43:19;4.50;;;1.70;;
54805;SDS011;62866;55.776;37.496;2023-07-24T02:45:45;2.42;;;1.23;;
54805;SDS011;62866;55.776;37.496;2023-07-24T02:48:10;4.35;;;1.50;;
54805;SDS011;62866;55.776;37.496;2023-07-24T02:50:36;1.70;;;1.42;;
54805;SDS011;62866;55.776;37.496;2023-07-24T02:53:01;3.92;;;1.60;;
54805;SDS011;62866;55.776;37.496;2023-07-24T02:55:27;3.22;;;1.45;;
54805;SDS011;62866;55.776;37.496;2023-07-24T02:57:53;2.00;;;1.15;;
54805;SDS011;62866;55.776;37.496;2023-07-24T03:00:18;2.03;;;1.30;;
54805;SDS011;62866;55.776;37.496;2023-07-24T03:02:44;1.38;;;1.20;;
54805;SDS011;62866;55.776;37.496;2023-07-24T03:05:09;1.73;;;1.38;;
54805;SDS011;62866;55.776;37.496;2023-07-24T03:07:35;2.03;;;1.50;;
54805;SDS011;62866;55.776;37.496;2023-07-24T03:10:01;2.40;;;1.45;;
54805;SDS011;62866;55.776;37.496;2023-07-24T03:12:26;2.00;;;1.35;;
54805;SDS011;62866;55.776;37.496;2023-07-24T03:14:52;2.78;;;1.60;;
54805;SDS011;62866;55.776;37.496;2023-07-24T03:17:17;1.48;;;1.20;;
54805;SDS011;62866;55.776;37.496;2023-07-24T03:19:43;1.70;;;1.08;;
54805;SDS011;62866;55.776;37.496;2023-07-24T03:22:09;2.63;;;1.65;;
54805;SDS011;62866;55.776;37.496;2023-07-24T03:24:34;1.80;;;1.40;;
54805;SDS011;62866;55.776;37.496;2023-07-24T03:27:00;3.63;;;1.55;;
54805;SDS011;62866;55.776;37.496;2023-07-24T03:29:26;3.63;;;1.80;;
54805;SDS011;62866;55.776;37.496;2023-07-24T03:31:54;2.13;;;1.45;;
54805;SDS011;62866;55.776;37.496;2023-07-24T03:34:20;2.83;;;1.80;;
54805;SDS011;62866;55.776;37.496;2023-07-24T03:36:46;4.25;;;1.70;;
54805;SDS011;62866;55.776;37.496;2023-07-24T03:39:11;2.58;;;1.60;;
54805;SDS011;62866;55.776;37.496;2023-07-24T03:41:38;2.42;;;1.50;;
54805;SDS011;62866;55.776;37.496;2023-07-24T03:44:04;3.33;;;2.08;;
54805;SDS011;62866;55.776;37.496;2023-07-24T03:46:31;3.75;;;1.95;;
54805;SDS011;62866;55.776;37.496;2023-07-24T03:48:57;3.08;;;1.88;;
54805;SDS011;62866;55.776;37.496;2023-07-24T03:51:23;2.65;;;1.60;;
54805;SDS011;62866;55.776;37.496;2023-07-24T03:53:49;2.38;;;1.70;;
54805;SDS011;62866;55.776;37.496;2023-07-24T03:56:14;2.35;;;1.75;;
54805;SDS011;62866;55.776;37.496;2023-07-24T03:58:40;3.83;;;1.70;;
54805;SDS011;62866;55.776;37.496;2023-07-24T04:01:05;2.40;;;1.50;;
54805;SDS011;62866;55.776;37.496;2023-07-24T04:03:31;3.33;;;2.15;;
54805;SDS011;62866;55.776;37.496;2023-07-24T04:05:57;2.47;;;1.65;;
54805;SDS011;62866;55.776;37.496;2023-07-24T04:08:22;2.67;;;1.60;;
54805;SDS011;62866;55.776;37.496;2023-07-24T04:10:48;2.60;;;1.58;;
54805;SDS011;62866;55.776;37.496;2023-07-24T04:13:13;1.90;;;1.40;;
54805;SDS011;62866;55.776;37.496;2023-07-24T04:15:39;7.15;;;1.88;;
54805;SDS011;62866;55.776;37.496;2023-07-24T04:18:05;2.25;;;1.70;;
54805;SDS011;62866;55.776;37.496;2023-07-24T04:20:30;3.55;;;1.42;;
54805;SDS011;62866;55.776;37.496;2023-07-24T04:22:56;2.80;;;1.60;;
54805;SDS011;62866;55.776;37.496;2023-07-24T04:25:21;3.17;;;1.60;;
54805;SDS011;62866;55.776;37.496;2023-07-24T04:27:47;3.08;;;1.70;;
54805;SDS011;62866;55.776;37.496;2023-07-24T04:30:12;1.73;;;1.60;;
54805;SDS011;62866;55.776;37.496;2023-07-24T04:32:38;3.22;;;1.70;;
54805;SDS011;62866;55.776;37.496;2023-07-24T04:35:03;3.97;;;1.50;;
54805;SDS011;62866;55.776;37.496;2023-07-24T04:37:29;3.03;;;1.90;;
54805;SDS011;62866;55.776;37.496;2023-07-24T04:39:55;3.40;;;1.75;;
54805;SDS011;62866;55.776;37.496;2023-07-24T04:42:20;3.33;;;2.00;;
54805;SDS011;62866;55.776;37.496;2023-07-24T04:44:46;3.35;;;1.50;;
54805;SDS011;62866;55.776;37.496;2023-07-24T04:47:12;2.00;;;1.25;;
54805;SDS011;62866;55.776;37.496;2023-07-24T04:49:37;1.77;;;1.42;;
54805;SDS011;62866;55.776;37.496;2023-07-24T04:52:03;3.25;;;2.33;;
54805;SDS011;62866;55.776;37.496;2023-07-24T04:54:29;2.40;;;1.65;;
54805;SDS011;62866;55.776;37.496;2023-07-24T04:56:54;3.75;;;1.50;;
54805;SDS011;62866;55.776;37.496;2023-07-24T04:59:20;2.92;;;1.98;;
54805;SDS011;62866;55.776;37.496;2023-07-24T05:01:45;3.13;;;1.58;;
54805;SDS011;62866;55.776;37.496;2023-07-24T05:04:11;2.45;;;1.60;;
54805;SDS011;62866;55.776;37.496;2023-07-24T05:06:36;3.47;;;1.50;;
54805;SDS011;62866;55.776;37.496;2023-07-24T05:09:03;3.13;;;1.40;;
54805;SDS011;62866;55.776;37.496;2023-07-24T05:11:29;1.80;;;1.40;;
54805;SDS011;62866;55.776;37.496;2023-07-24T05:13:54;1.90;;;1.45;;
54805;SDS011;62866;55.776;37.496;2023-07-24T05:16:20;2.80;;;1.35;;
54805;SDS011;62866;55.776;37.496;2023-07-24T05:18:45;4.03;;;1.55;;
54805;SDS011;62866;55.776;37.496;2023-07-24T05:21:11;1.70;;;1.60;;
54805;SDS011;62866;55.776;37.496;2023-07-24T05:23:37;2.47;;;1.40;;
54805;SDS011;62866;55.776;37.496;2023-07-24T05:26:02;2.67;;;1.45;;
54805;SDS011;62866;55.776;37.496;2023-07-24T05:28:29;2.50;;;1.50;;
54805;SDS011;62866;55.776;37.496;2023-07-24T05:30:59;1.42;;;1.20;;
54805;SDS011;62866;55.776;37.496;2023-07-24T05:33:27;1.48;;;1.35;;
54805;SDS011;62866;55.776;37.496;2023-07-24T05:36:00;2.95;;;1.52;;
54805;SDS011;62866;55.776;37.496;2023-07-24T05:38:26;1.73;;;1.40;;
54805;SDS011;62866;55.776;37.496;2023-07-24T05:40:56;1.50;;;1.40;;
54805;SDS011;62866;55.776;37.496;2023-07-24T05:43:21;1.70;;;1.42;;
54805;SDS011;62866;55.776;37.496;2023-07-24T05:45:47;4.57;;;1.50;;
54805;SDS011;62866;55.776;37.496;2023-07-24T05:48:13;2.00;;;1.33;;
54805;SDS011;62866;55.776;37.496;2023-07-24T05:50:38;2.58;;;1.70;;
54805;SDS011;62866;55.776;37.496;2023-07-24T05:53:04;3.40;;;1.25;;
54805;SDS011;62866;55.776;37.496;2023-07-24T05:55:29;3.08;;;1.30;;
54805;SDS011;62866;55.776;37.496;2023-07-24T05:57:55;2.25;;;1.50;;
54805;SDS011;62866;55.776;37.496;2023-07-24T06:00:20;3.83;;;1.50;;
54805;SDS011;62866;55.776;37.496;2023-07-24T06:02:46;1.85;;;1.20;;
54805;SDS011;62866;55.776;37.496;2023-07-24T06:05:11;3.05;;;1.70;;
54805;SDS011;62866;55.776;37.496;2023-07-24T06:07:37;1.77;;;1.20;;
54805;SDS011;62866;55.776;37.496;2023-07-24T06:10:02;1.92;;;1.38;;
54805;SDS011;62866;55.776;37.496;2023-07-24T06:12:28;5.57;;;1.60;;
54805;SDS011;62866;55.776;37.496;2023-07-24T06:14:54;1.98;;;1.15;;
54805;SDS011;62866;55.776;37.496;2023-07-24T06:17:19;3.95;;;1.27;;
54805;SDS011;62866;55.776;37.496;2023-07-24T06:19:45;5.22;;;1.30;;
54805;SDS011;62866;55.776;37.496;2023-07-24T06:22:10;4.30;;;1.20;;
54805;SDS011;62866;55.776;37.496;2023-07-24T06:24:36;1.95;;;1.13;;
54805;SDS011;62866;55.776;37.496;2023-07-24T06:27:03;1.70;;;1.10;;
54805;SDS011;62866;55.776;37.496;2023-07-24T06:29:31;1.38;;;1.05;;
54805;SDS011;62866;55.776;37.496;2023-07-24T06:31:57;3.95;;;1.40;;
54805;SDS011;62866;55.776;37.496;2023-07-24T06:34:22;2.13;;;1.30;;
54805;SDS011;62866;55.776;37.496;2023-07-24T06:36:48;1.40;;;1.20;;
54805;SDS011;62866;55.776;37.496;2023-07-24T06:39:14;1.52;;;0.98;;
54805;SDS011;62866;55.776;37.496;2023-07-24T06:41:39;1.40;;;1.00;;
54805;SDS011;62866;55.776;37.496;2023-07-24T06:44:05;2.65;;;1.13;;
54805;SDS011;62866;55.776;37.496;2023-07-24T06:46:30;2.75;;;1.13;;
54805;SDS011;62866;55.776;37.496;2023-07-24T06:48:56;1.52;;;1.10;;
54805;SDS011;62866;55.776;37.496;2023-07-24T06:51:21;1.25;;;1.05;;
54805;SDS011;62866;55.776;37.496;2023-07-24T06:53:47;2.05;;;1.33;;
54805;SDS011;62866;55.776;37.496;2023-07-24T06:56:12;2.50;;;1.05;;
54805;SDS011;62866;55.776;37.496;2023-07-24T06:58:38;2.10;;;1.08;;
54805;SDS011;62866;55.776;37.496;2023-07-24T07:01:07;2.05;;;1.08;;
54805;SDS011;62866;55.776;37.496;2023-07-24T07:03:33;1.70;;;1.00;;
54805;SDS011;62866;55.776;37.496;2023-07-24T07:06:00;1.20;;;1.10;;
54805;SDS011;62866;55.776;37.496;2023-07-24T07:08:28;1.20;;;0.90;;
54805;SDS011;62866;55.776;37.496;2023-07-24T07:10:56;1.80;;;1.13;;
54805;SDS011;62866;55.776;37.496;2023-07-24T07:13:22;1.67;;;1.30;;
54805;SDS011;62866;55.776;37.496;2023-07-24T07:15:48;1.50;;;1.17;;
54805;SDS011;62866;55.776;37.496;2023-07-24T07:18:13;2.08;;;1.10;;
54805;SDS011;62866;55.776;37.496;2023-07-24T07:20:44;2.67;;;1.15;;
54805;SDS011;62866;55.776;37.496;2023-07-24T07:23:11;1.38;;;1.08;;
54805;SDS011;62866;55.776;37.496;2023-07-24T07:25:37;1.77;;;0.90;;
54805;SDS011;62866;55.776;37.496;2023-07-24T07:28:02;1.73;;;0.90;;
54805;SDS011;62866;55.776;37.496;2023-07-24T07:30:28;2.03;;;1.10;;
54805;SDS011;62866;55.776;37.496;2023-07-24T07:32:54;2.40;;;1.48;;
54805;SDS011;62866;55.776;37.496;2023-07-24T07:35:19;2.00;;;1.10;;
54805;SDS011;62866;55.776;37.496;2023-07-24T07:37:45;2.78;;;1.05;;
54805;SDS011;62866;55.776;37.496;2023-07-24T07:40:10;2.22;;;1.00;;
54805;SDS011;62866;55.776;37.496;2023-07-24T07:42:36;1.85;;;1.00;;
54805;SDS011;62866;55.776;37.496;2023-07-24T07:45:02;1.70;;;1.10;;
54805;SDS011;62866;55.776;37.496;2023-07-24T07:47:28;1.40;;;1.30;;
54805;SDS011;62866;55.776;37.496;2023-07-24T07:49:53;2.80;;;1.38;;
54805;SDS011;62866;55.776;37.496;2023-07-24T07:52:19;2.30;;;1.13;;
54805;SDS011;62866;55.776;37.496;2023-07-24T07:54:47;2.50;;;1.33;;
54805;SDS011;62866;55.776;37.496;2023-07-24T07:57:15;1.63;;;1.33;;
54805;SDS011;62866;55.776;37.496;2023-07-24T07:59:41;3.53;;;1.10;;
54805;SDS011;62866;55.776;37.496;2023-07-24T08:02:07;1.83;;;1.30;;
54805;SDS011;62866;55.776;37.496;2023-07-24T08:04:32;3.30;;;1.20;;
54805;SDS011;62866;55.776;37.496;2023-07-24T08:06:58;1.13;;;0.95;;
54805;SDS011;62866;55.776;37.496;2023-07-24T08:09:23;5.55;;;1.30;;
54805;SDS011;62866;55.776;37.496;2023-07-24T08:11:49;3.45;;;1.20;;
54805;SDS011;62866;55.776;37.496;2023-07-24T08:14:16;1.77;;;1.30;;
54805;SDS011;62866;55.776;37.496;2023-07-24T08:16:42;1.95;;;1.42;;
54805;SDS011;62866;55.776;37.496;2023-07-24T08:19:08;2.67;;;1.60;;
54805;SDS011;62866;55.776;37.496;2023-07-24T08:21:33;3.70;;;1.30;;
54805;SDS011;62866;55.776;37.496;2023-07-24T08:23:59;3.28;;;1.42;;
54805;SDS011;62866;55.776;37.496;2023-07-24T08:26:26;3.15;;;1.50;;
54805;SDS011;62866;55.776;37.496;2023-07-24T08:28:52;3.33;;;1.20;;
54805;SDS011;62866;55.776;37.496;2023-07-24T08:31:18;4.60;;;1.60;;
54805;SDS011;62866;55.776;37.496;2023-07-24T08:33:43;2.13;;;1.27;;
54805;SDS011;62866;55.776;37.496;2023-07-24T08:36:09;4.55;;;1.65;;
54805;SDS011;62866;55.776;37.496;2023-07-24T08:38:36;1.95;;;1.40;;
54805;SDS011;62866;55.776;37.496;2023-07-24T08:41:06;5.13;;;1.90;;
54805;SDS011;62866;55.776;37.496;2023-07-24T08:43:34;5.63;;;2.08;;
54805;SDS011;62866;55.776;37.496;2023-07-24T08:46:01;3.13;;;1.70;;
54805;SDS011;62866;55.776;37.496;2023-07-24T08:48:32;2.85;;;1.50;;
54805;SDS011;62866;55.776;37.496;2023-07-24T08:51:04;3.47;;;1.77;;
54805;SDS011;62866;55.776;37.496;2023-07-24T08:53:32;3.20;;;1.60;;
54805;SDS011;62866;55.776;37.496;2023-07-24T08:56:05;4.13;;;1.50;;
54805;SDS011;62866;55.776;37.496;2023-07-24T08:58:32;4.43;;;1.63;;
54805;SDS011;62866;55.776;37.496;2023-07-24T09:00:59;5.30;;;2.00;;
54805;SDS011;62866;55.776;37.496;2023-07-24T09:03:25;2.92;;;1.63;;
54805;SDS011;62866;55.776;37.496;2023-07-24T09:05:51;2.90;;;2.03;;
54805;SDS011;62866;55.776;37.496;2023-07-24T09:08:27;2.55;;;1.42;;
54805;SDS011;62866;55.776;37.496;2023-07-24T09:10:58;4.65;;;2.05;;
54805;SDS011;62866;55.776;37.496;2023-07-24T09:13:24;2.10;;;1.60;;
54805;SDS011;62866;55.776;37.496;2023-07-24T09:15:50;2.67;;;1.73;;
54805;SDS011;62866;55.776;37.496;2023-07-24T09:18:16;2.60;;;1.92;;
54805;SDS011;62866;55.776;37.496;2023-07-24T09:20:43;3.05;;;1.83;;
54805;SDS011;62866;55.776;37.496;2023-07-24T09:23:09;2.85;;;1.95;;
54805;SDS011;62866;55.776;37.496;2023-07-24T09:25:37;2.53;;;1.92;;
54805;SDS011;62866;55.776;37.496;2023-07-24T09:28:11;3.55;;;2.70;;
54805;SDS011;62866;55.776;37.496;2023-07-24T09:30:56;3.63;;;2.47;;
54805;SDS011;62866;55.776;37.496;2023-07-24T09:33:23;3.53;;;2.00;;
54805;SDS011;62866;55.776;37.496;2023-07-24T09:36:02;6.00;;;2.08;;
54805;SDS011;62866;55.776;37.496;2023-07-24T09:38:29;3.20;;;1.65;;
54805;SDS011;62866;55.776;37.496;2023-07-24T09:40:55;4.68;;;2.17;;
54805;SDS011;62866;55.776;37.496;2023-07-24T09:43:22;3.85;;;2.38;;
54805;SDS011;62866;55.776;37.496;2023-07-24T09:45:49;2.83;;;2.10;;
54805;SDS011;62866;55.776;37.496;2023-07-24T09:48:17;4.47;;;1.70;;
54805;SDS011;62866;55.776;37.496;2023-07-24T09:50:45;3.67;;;2.13;;
54805;SDS011;62866;55.776;37.496;2023-07-24T09:53:30;3.42;;;2.28;;
54805;SDS011;62866;55.776;37.496;2023-07-24T09:56:05;3.63;;;2.30;;
54805;SDS011;62866;55.776;37.496;2023-07-24T09:58:36;5.13;;;3.03;;
54805;SDS011;62866;55.776;37.496;2023-07-24T10:01:04;3.22;;;2.15;;
54805;SDS011;62866;55.776;37.496;2023-07-24T10:03:34;4.13;;;2.20;;
54805;SDS011;62866;55.776;37.496;2023-07-24T10:06:01;2.95;;;2.08;;
54805;SDS011;62866;55.776;37.496;2023-07-24T10:08:27;2.25;;;1.70;;
54805;SDS011;62866;55.776;37.496;2023-07-24T10:10:53;3.53;;;2.55;;
54805;SDS011;62866;55.776;37.496;2023-07-24T10:13:19;4.30;;;2.40;;
54805;SDS011;62866;55.776;37.496;2023-07-24T10:15:47;3.15;;;2.47;;
54805;SDS011;62866;55.776;37.496;2023-07-24T10:18:14;2.75;;;1.98;;
54805;SDS011;62866;55.776;37.496;2023-07-24T10:20:42;2.30;;;1.58;;
54805;SDS011;62866;55.776;37.496;2023-07-24T10:23:09;3.95;;;1.70;;
54805;SDS011;62866;55.776;37.496;2023-07-24T10:25:37;3.47;;;1.70;;
54805;SDS011;62866;55.776;37.496;2023-07-24T10:28:09;4.47;;;2.08;;
54805;SDS011;62866;55.776;37.496;2023-07-24T10:30:40;2.20;;;1.60;;
54805;SDS011;62866;55.776;37.496;2023-07-24T10:33:13;2.92;;;1.35;;
54805;SDS011;62866;55.776;37.496;2023-07-24T10:35:46;1.77;;;1.40;;
54805;SDS011;62866;55.776;37.496;2023-07-24T10:38:16;1.98;;;1.42;;
54805;SDS011;62866;55.776;37.496;2023-07-24T10:40:43;5.32;;;3.47;;
54805;SDS011;62866;55.776;37.496;2023-07-24T10:43:11;3.65;;;2.20;;
54805;SDS011;62866;55.776;37.496;2023-07-24T10:48:08;3.05;;;1.95;;
54805;SDS011;62866;55.776;37.496;2023-07-24T10:50:42;5.25;;;2.25;;
54805;SDS011;62866;55.776;37.496;2023-07-24T10:53:14;2.30;;;1.63;;
54805;SDS011;62866;55.776;37.496;2023-07-24T10:55:44;4.10;;;2.13;;
54805;SDS011;62866;55.776;37.496;2023-07-24T10:58:12;2.88;;;1.90;;
54805;SDS011;62866;55.776;37.496;2023-07-24T11:00:39;3.33;;;2.03;;
54805;SDS011;62866;55.776;37.496;2023-07-24T11:03:12;2.58;;;1.95;;
54805;SDS011;62866;55.776;37.496;2023-07-24T11:05:39;2.53;;;1.88;;
54805;SDS011;62866;55.776;37.496;2023-07-24T11:08:12;2.65;;;1.70;;
54805;SDS011;62866;55.776;37.496;2023-07-24T11:10:49;5.30;;;2.35;;
54805;SDS011;62866;55.776;37.496;2023-07-24T11:13:16;2.35;;;1.90;;
54805;SDS011;62866;55.776;37.496;2023-07-24T11:15:43;3.47;;;2.08;;
54805;SDS011;62866;55.776;37.496;2023-07-24T11:18:09;4.47;;;1.85;;
54805;SDS011;62866;55.776;37.496;2023-07-24T11:20:38;2.97;;;2.10;;
54805;SDS011;62866;55.776;37.496;2023-07-24T11:23:10;5.32;;;2.60;;
54805;SDS011;62866;55.776;37.496;2023-07-24T11:25:36;3.30;;;2.47;;
54805;SDS011;62866;55.776;37.496;2023-07-24T11:28:05;4.28;;;2.40;;
54805;SDS011;62866;55.776;37.496;2023-07-24T11:30:32;6.85;;;3.20;;
54805;SDS011;62866;55.776;37.496;2023-07-24T11:33:01;3.05;;;2.25;;
54805;SDS011;62866;55.776;37.496;2023-07-24T11:35:28;4.18;;;2.33;;
54805;SDS011;62866;55.776;37.496;2023-07-24T11:37:54;5.57;;;3.95;;
54805;SDS011;62866;55.776;37.496;2023-07-24T11:40:20;3.38;;;2.25;;
54805;SDS011;62866;55.776;37.496;2023-07-24T11:42:47;2.58;;;2.10;;
54805;SDS011;62866;55.776;37.496;2023-07-24T11:45:13;4.65;;;2.28;;
54805;SDS011;62866;55.776;37.496;2023-07-24T11:47:49;2.75;;;2.47;;
54805;SDS011;62866;55.776;37.496;2023-07-24T11:50:16;3.63;;;2.65;;
54805;SDS011;62866;55.776;37.496;2023-07-24T11:52:43;4.32;;;2.47;;
54805;SDS011;62866;55.776;37.496;2023-07-24T11:55:29;2.65;;;2.10;;
54805;SDS011;62866;55.776;37.496;2023-07-24T11:58:00;3.00;;;2.13;;
54805;SDS011;62866;55.776;37.496;2023-07-24T12:00:27;3.83;;;2.20;;
54805;SDS011;62866;55.776;37.496;2023-07-24T12:02:53;3.85;;;2.30;;
54805;SDS011;62866;55.776;37.496;2023-07-24T12:05:24;5.18;;;2.33;;
54805;SDS011;62866;55.776;37.496;2023-07-24T12:07:53;4.05;;;2.60;;
54805;SDS011;62866;55.776;37.496;2023-07-24T12:10:26;4.85;;;2.78;;
54805;SDS011;62866;55.776;37.496;2023-07-24T12:12:52;4.25;;;2.30;;
54805;SDS011;62866;55.776;37.496;2023-07-24T12:15:19;4.78;;;2.03;;
54805;SDS011;62866;55.776;37.496;2023-07-24T12:17:45;13.50;;;2.10;;
54805;SDS011;62866;55.776;37.496;2023-07-24T12:20:10;4.15;;;3.53;;
54805;SDS011;62866;55.776;37.496;2023-07-24T12:22:37;5.13;;;2.65;;
54805;SDS011;62866;55.776;37.496;2023-07-24T12:25:03;3.50;;;2.55;;
54805;SDS011;62866;55.776;37.496;2023-07-24T12:27:30;6.65;;;2.60;;
54805;SDS011;62866;55.776;37.496;2023-07-24T12:29:56;3.13;;;2.22;;
54805;SDS011;62866;55.776;37.496;2023-07-24T12:32:22;5.63;;;3.00;;
54805;SDS011;62866;55.776;37.496;2023-07-24T12:34:48;4.28;;;2.50;;
54805;SDS011;62866;55.776;37.496;2023-07-24T12:37:15;3.67;;;2.45;;
54805;SDS011;62866;55.776;37.496;2023-07-24T12:39:40;2.55;;;2.30;;
54805;SDS011;62866;55.776;37.496;2023-07-24T12:42:08;2.58;;;2.20;;
54805;SDS011;62866;55.776;37.496;2023-07-24T12:44:34;2.83;;;2.13;;
54805;SDS011;62866;55.776;37.496;2023-07-24T12:46:59;2.78;;;2.33;;
54805;SDS011;62866;55.776;37.496;2023-07-24T12:49:25;3.03;;;2.17;;
54805;SDS011;62866;55.776;37.496;2023-07-24T12:51:50;3.25;;;2.38;;
54805;SDS011;62866;55.776;37.496;2023-07-24T12:54:16;3.20;;;2.17;;
54805;SDS011;62866;55.776;37.496;2023-07-24T12:56:44;4.38;;;2.40;;
54805;SDS011;62866;55.776;37.496;2023-07-24T12:59:13;4.47;;;2.40;;
54805;SDS011;62866;55.776;37.496;2023-07-24T13:01:39;3.20;;;2.33;;
54805;SDS011;62866;55.776;37.496;2023-07-24T13:04:07;4.63;;;2.58;;
54805;SDS011;62866;55.776;37.496;2023-07-24T13:06:33;3.10;;;2.47;;
54805;SDS011;62866;55.776;37.496;2023-07-24T13:08:59;4.15;;;2.10;;
54805;SDS011;62866;55.776;37.496;2023-07-24T13:11:28;5.28;;;2.35;;
54805;SDS011;62866;55.776;37.496;2023-07-24T13:13:54;2.22;;;1.92;;
54805;SDS011;62866;55.776;37.496;2023-07-24T13:16:20;2.88;;;2.33;;
54805;SDS011;62866;55.776;37.496;2023-07-24T13:18:46;2.65;;;2.25;;
54805;SDS011;62866;55.776;37.496;2023-07-24T13:21:12;2.50;;;2.15;;
54805;SDS011;62866;55.776;37.496;2023-07-24T13:23:39;4.22;;;2.10;;
54805;SDS011;62866;55.776;37.496;2023-07-24T13:26:05;4.63;;;2.33;;
54805;SDS011;62866;55.776;37.496;2023-07-24T13:28:32;3.65;;;2.70;;
54805;SDS011;62866;55.776;37.496;2023-07-24T13:30:58;3.88;;;2.20;;
54805;SDS011;62866;55.776;37.496;2023-07-24T13:33:23;3.03;;;2.60;;
54805;SDS011;62866;55.776;37.496;2023-07-24T13:35:49;3.78;;;2.50;;
54805;SDS011;62866;55.776;37.496;2023-07-24T13:38:16;2.72;;;2.00;;
54805;SDS011;62866;55.776;37.496;2023-07-24T13:40:42;3.47;;;2.22;;
54805;SDS011;62866;55.776;37.496;2023-07-24T13:43:07;3.60;;;1.98;;
54805;SDS011;62866;55.776;37.496;2023-07-24T13:45:33;3.92;;;2.78;;
54805;SDS011;62866;55.776;37.496;2023-07-24T13:50:48;2.83;;;2.20;;
54805;SDS011;62866;55.776;37.496;2023-07-24T13:53:15;3.90;;;2.40;;
54805;SDS011;62866;55.776;37.496;2023-07-24T13:55:40;3.33;;;2.45;;
54805;SDS011;62866;55.776;37.496;2023-07-24T13:58:21;3.72;;;2.20;;
54805;SDS011;62866;55.776;37.496;2023-07-24T14:00:58;3.17;;;2.17;;
54805;SDS011;62866;55.776;37.496;2023-07-24T14:03:24;3.25;;;2.38;;
54805;SDS011;62866;55.776;37.496;2023-07-24T14:05:54;3.33;;;2.35;;
54805;SDS011;62866;55.776;37.496;2023-07-24T14:08:19;4.32;;;2.47;;
54805;SDS011;62866;55.776;37.496;2023-07-24T14:10:45;6.22;;;2.70;;
54805;SDS011;62866;55.776;37.496;2023-07-24T14:13:10;3.38;;;2.30;;
54805;SDS011;62866;55.776;37.496;2023-07-24T14:15:36;4.28;;;2.70;;
54805;SDS011;62866;55.776;37.496;2023-07-24T14:18:02;2.90;;;2.10;;
54805;SDS011;62866;55.776;37.496;2023-07-24T14:20:27;2.80;;;2.25;;
54805;SDS011;62866;55.776;37.496;2023-07-24T14:22:53;5.10;;;2.03;;
54805;SDS011;62866;55.776;37.496;2023-07-24T14:25:18;3.55;;;2.03;;
54805;SDS011;62866;55.776;37.496;2023-07-24T14:27:44;2.85;;;2.22;;
54805;SDS011;62866;55.776;37.496;2023-07-24T14:30:09;4.07;;;2.50;;
54805;SDS011;62866;55.776;37.496;2023-07-24T14:32:35;6.00;;;2.42;;
54805;SDS011;62866;55.776;37.496;2023-07-24T14:35:01;4.85;;;2.63;;
54805;SDS011;62866;55.776;37.496;2023-07-24T14:37:27;4.55;;;2.58;;
54805;SDS011;62866;55.776;37.496;2023-07-24T14:39:52;4.53;;;2.13;;